Time;durP1;ratioP1;P1;durP2;ratioP2;P2;SDS_P1;SDS_P2;PMS_P1;PMS_P2;Temp;Humidity;BMP_temperature;BMP_pressure;BME280_temperature;BME280_humidity;BME280_pressure;Samples;Min_cycle;Max_cycle;Signal;HPM_P1;HPM_P2
2022/05/22 00:00:30;;;;;;;13.15;3.15;;;;;;;;;;5031302;28;20389;-63
2022/05/22 00:02:56;;;;;;;10.47;3.00;;;;;;;;;;5030248;28;20492;-64
2022/05/22 00:05:23;;;;;;;8.00;2.67;;;;;;;;;;5029574;28;20459;-63
2022/05/22 00:07:49;;;;;;;12.48;3.25;;;;;;;;;;5029644;28;20421;-63
2022/05/22 00:10:16;;;;;;;13.07;3.08;;;;;;;;;;5029937;28;20421;-63
2022/05/22 00:12:42;;;;;;;10.23;2.95;;;;;;;;;;5049536;28;20620;-63
2022/05/22 00:15:08;;;;;;;10.85;2.70;;;;;;;;;;5031519;28;20397;-63
2022/05/22 00:17:41;;;;;;;10.27;2.80;;;;;;;;;;5031925;28;20385;-63
2022/05/22 00:20:07;;;;;;;11.40;3.20;;;;;;;;;;5029934;28;20391;-62
2022/05/22 00:22:33;;;;;;;8.88;2.90;;;;;;;;;;5031370;28;20385;-56
2022/05/22 00:24:59;;;;;;;10.55;2.92;;;;;;;;;;5032090;28;20634;-55
2022/05/22 00:27:25;;;;;;;9.70;3.05;;;;;;;;;;5032883;28;20439;-56
2022/05/22 00:29:51;;;;;;;11.27;2.80;;;;;;;;;;5030570;28;20424;-57
2022/05/22 00:32:17;;;;;;;12.63;3.22;;;;;;;;;;5030095;28;20396;-58
2022/05/22 00:34:49;;;;;;;10.98;2.97;;;;;;;;;;5048821;28;20405;-53
2022/05/22 00:37:15;;;;;;;10.33;3.40;;;;;;;;;;5047092;28;20871;-53
2022/05/22 00:39:41;;;;;;;10.20;3.20;;;;;;;;;;5029109;28;20492;-56
2022/05/22 00:42:15;;;;;;;11.60;3.45;;;;;;;;;;5029025;28;20466;-54
2022/05/22 00:44:40;;;;;;;12.27;3.10;;;;;;;;;;5047498;28;20803;-52
2022/05/22 00:47:06;;;;;;;11.03;3.57;;;;;;;;;;5047512;28;20514;-55
2022/05/22 00:49:35;;;;;;;10.57;3.25;;;;;;;;;;5031818;28;20385;-54
2022/05/22 00:52:01;;;;;;;11.25;3.10;;;;;;;;;;5031589;28;20385;-54
2022/05/22 00:54:36;;;;;;;10.73;3.08;;;;;;;;;;5049753;28;20474;-50
2022/05/22 00:57:04;;;;;;;13.45;3.25;;;;;;;;;;5007889;28;20408;-54
2022/05/22 00:59:33;;;;;;;10.20;3.40;;;;;;;;;;5006731;28;20373;-52
2022/05/22 01:02:00;;;;;;;10.60;3.20;;;;;;;;;;5007192;28;20385;-53
2022/05/22 01:04:29;;;;;;;10.43;3.28;;;;;;;;;;5007069;28;20396;-51
2022/05/22 01:06:55;;;;;;;9.93;3.40;;;;;;;;;;5009438;28;20483;-50
2022/05/22 01:09:21;;;;;;;11.32;3.20;;;;;;;;;;5010391;28;20544;-54
2022/05/22 01:11:49;;;;;;;9.65;3.25;;;;;;;;;;5007217;28;20665;-52
2022/05/22 01:14:18;;;;;;;13.27;3.70;;;;;;;;;;5005504;28;20872;-52
2022/05/22 01:16:45;;;;;;;8.63;3.17;;;;;;;;;;5005933;28;20662;-53
2022/05/22 01:19:15;;;;;;;14.00;3.80;;;;;;;;;;5005049;28;20449;-55
2022/05/22 01:21:43;;;;;;;9.00;3.22;;;;;;;;;;5002612;28;20796;-52
2022/05/22 01:24:09;;;;;;;9.32;3.55;;;;;;;;;;5003299;28;20724;-54
2022/05/22 01:26:35;;;;;;;13.93;3.97;;;;;;;;;;5001160;28;20385;-54
2022/05/22 01:29:01;;;;;;;13.40;3.97;;;;;;;;;;5001118;28;20455;-55
2022/05/22 01:31:27;;;;;;;11.73;3.83;;;;;;;;;;5003486;28;20381;-51
2022/05/22 01:33:53;;;;;;;14.00;3.92;;;;;;;;;;5002090;28;20404;-52
2022/05/22 01:36:19;;;;;;;12.98;3.85;;;;;;;;;;5006171;28;20931;-52
2022/05/22 01:38:45;;;;;;;11.85;3.92;;;;;;;;;;5007969;28;20388;-53
2022/05/22 01:41:14;;;;;;;11.68;3.70;;;;;;;;;;5010033;28;20381;-52
2022/05/22 01:43:40;;;;;;;10.70;3.40;;;;;;;;;;5009861;28;20745;-51
2022/05/22 01:46:07;;;;;;;12.05;3.55;;;;;;;;;;5008087;28;20408;-49
2022/05/22 01:48:33;;;;;;;13.13;4.38;;;;;;;;;;5010080;28;20491;-53
2022/05/22 01:50:59;;;;;;;11.65;3.65;;;;;;;;;;5009571;28;20483;-54
2022/05/22 01:53:25;;;;;;;10.50;3.33;;;;;;;;;;5008281;28;20500;-53
2022/05/22 01:55:51;;;;;;;9.47;3.80;;;;;;;;;;5018410;28;20565;-53
2022/05/22 01:58:18;;;;;;;14.57;3.73;;;;;;;;;;5031851;28;20386;-51
2022/05/22 02:00:44;;;;;;;12.80;3.80;;;;;;;;;;5031967;28;20383;-54
2022/05/22 02:03:12;;;;;;;12.43;3.83;;;;;;;;;;5033093;28;20570;-51
2022/05/22 02:05:49;;;;;;;11.48;3.25;;;;;;;;;;5031807;28;22273;-54
2022/05/22 02:08:24;;;;;;;12.60;3.88;;;;;;;;;;5031143;28;20395;-53
2022/05/22 02:11:00;;;;;;;13.93;3.65;;;;;;;;;;5033000;28;20726;-55
2022/05/22 02:13:28;;;;;;;10.02;3.15;;;;;;;;;;5033768;28;20417;-55
2022/05/22 02:15:54;;;;;;;10.48;3.35;;;;;;;;;;5032942;28;20395;-54
2022/05/22 02:18:20;;;;;;;11.25;3.58;;;;;;;;;;5030573;28;20394;-51
2022/05/22 02:20:48;;;;;;;12.27;3.55;;;;;;;;;;5031369;28;20574;-56
2022/05/22 02:23:14;;;;;;;9.52;3.10;;;;;;;;;;5031863;28;20809;-57
2022/05/22 02:25:43;;;;;;;12.65;3.50;;;;;;;;;;5030174;28;20457;-54
2022/05/22 02:28:11;;;;;;;13.05;3.47;;;;;;;;;;5031316;28;20395;-54
2022/05/22 02:30:38;;;;;;;11.10;3.10;;;;;;;;;;5032349;28;20394;-55
2022/05/22 02:33:04;;;;;;;9.18;3.10;;;;;;;;;;5030387;28;20398;-54
2022/05/22 02:35:30;;;;;;;13.35;3.72;;;;;;;;;;5029989;28;20800;-54
2022/05/22 02:37:56;;;;;;;9.50;2.97;;;;;;;;;;5028717;28;20394;-53
2022/05/22 02:40:25;;;;;;;14.63;3.43;;;;;;;;;;5029918;28;20981;-52
2022/05/22 02:42:51;;;;;;;10.27;3.35;;;;;;;;;;5030257;28;20415;-51
2022/05/22 02:45:19;;;;;;;14.77;3.60;;;;;;;;;;5029032;28;20487;-52
2022/05/22 02:47:45;;;;;;;10.68;3.30;;;;;;;;;;5030242;28;20391;-50
2022/05/22 02:50:12;;;;;;;7.53;2.78;;;;;;;;;;5033351;28;20492;-53
2022/05/22 02:52:39;;;;;;;9.67;3.27;;;;;;;;;;5033730;28;20387;-56
2022/05/22 02:55:06;;;;;;;11.30;3.10;;;;;;;;;;5033383;28;20434;-54
2022/05/22 02:57:35;;;;;;;10.25;2.85;;;;;;;;;;5033845;28;20679;-52
2022/05/22 03:00:02;;;;;;;12.47;3.27;;;;;;;;;;5035739;28;20479;-54
2022/05/22 03:02:27;;;;;;;11.02;3.13;;;;;;;;;;5032601;28;20383;-55
2022/05/22 03:04:53;;;;;;;11.30;3.53;;;;;;;;;;5032413;28;20383;-51
2022/05/22 03:07:20;;;;;;;9.95;3.30;;;;;;;;;;5030986;28;20441;-53
2022/05/22 03:09:46;;;;;;;9.95;3.45;;;;;;;;;;5029032;28;20391;-53
2022/05/22 03:12:15;;;;;;;12.13;3.78;;;;;;;;;;5031912;28;20818;-53
2022/05/22 03:14:45;;;;;;;13.73;3.80;;;;;;;;;;5030400;28;20525;-51
2022/05/22 03:17:11;;;;;;;14.48;3.92;;;;;;;;;;5031405;28;20407;-53
2022/05/22 03:19:37;;;;;;;11.60;3.33;;;;;;;;;;5030542;28;20529;-50
2022/05/22 03:22:04;;;;;;;10.67;3.10;;;;;;;;;;5030029;28;20489;-55
2022/05/22 03:24:45;;;;;;;11.70;3.53;;;;;;;;;;5031393;28;20387;-52
2022/05/22 03:27:18;;;;;;;10.25;3.40;;;;;;;;;;5032730;28;20394;-52
2022/05/22 03:29:46;;;;;;;11.82;3.47;;;;;;;;;;5030573;28;20395;-51
2022/05/22 03:32:12;;;;;;;11.85;3.50;;;;;;;;;;5029350;28;20683;-52
2022/05/22 03:34:39;;;;;;;12.55;3.28;;;;;;;;;;5031081;28;20421;-55
2022/05/22 03:37:05;;;;;;;9.97;3.00;;;;;;;;;;5029562;28;20391;-53
2022/05/22 03:39:31;;;;;;;9.25;3.10;;;;;;;;;;5030725;28;20415;-53
2022/05/22 03:42:19;;;;;;;8.20;2.80;;;;;;;;;;5034382;28;20427;-54
2022/05/22 03:44:45;;;;;;;9.07;2.85;;;;;;;;;;5029219;28;20383;-51
2022/05/22 03:47:11;;;;;;;15.32;3.30;;;;;;;;;;5030131;28;20380;-54
2022/05/22 03:49:37;;;;;;;11.25;3.60;;;;;;;;;;5031387;28;20387;-54
2022/05/22 03:52:03;;;;;;;17.47;3.67;;;;;;;;;;5029737;28;20502;-53
2022/05/22 03:54:29;;;;;;;9.38;2.88;;;;;;;;;;5030159;28;20688;-56
2022/05/22 03:56:56;;;;;;;16.02;3.78;;;;;;;;;;5028379;28;20427;-54
2022/05/22 03:59:22;;;;;;;13.48;3.53;;;;;;;;;;5027352;28;20379;-55
2022/05/22 04:01:48;;;;;;;15.83;3.63;;;;;;;;;;5028569;28;20402;-56
2022/05/22 04:04:14;;;;;;;11.32;3.30;;;;;;;;;;5028365;28;20383;-53
2022/05/22 04:06:40;;;;;;;12.07;3.83;;;;;;;;;;5028379;28;20395;-56
2022/05/22 04:09:08;;;;;;;11.40;2.88;;;;;;;;;;5029189;28;20395;-51
2022/05/22 04:11:34;;;;;;;8.98;3.17;;;;;;;;;;5028928;28;20500;-55
2022/05/22 04:14:02;;;;;;;13.23;3.50;;;;;;;;;;5032766;28;20513;-53
2022/05/22 04:16:28;;;;;;;9.43;2.80;;;;;;;;;;5030697;28;20379;-53
2022/05/22 04:18:54;;;;;;;9.27;3.03;;;;;;;;;;5028245;28;20383;-56
2022/05/22 04:21:21;;;;;;;12.73;3.30;;;;;;;;;;5026048;28;20923;-54
2022/05/22 04:26:36;;;;;;;12.07;3.17;;;;;;;;;;5030503;28;20402;-53
2022/05/22 04:29:03;;;;;;;11.50;3.30;;;;;;;;;;5027187;28;20387;-55
2022/05/22 04:31:29;;;;;;;9.90;3.13;;;;;;;;;;5029413;28;20467;-54
2022/05/22 04:33:55;;;;;;;8.10;3.10;;;;;;;;;;5029327;28;20429;-53
2022/05/22 04:36:21;;;;;;;13.13;3.60;;;;;;;;;;5029250;28;20390;-55
2022/05/22 04:38:47;;;;;;;12.73;3.37;;;;;;;;;;5026167;28;20614;-52
2022/05/22 04:41:13;;;;;;;11.17;3.60;;;;;;;;;;5028020;28;20899;-56
2022/05/22 04:43:39;;;;;;;10.57;3.38;;;;;;;;;;5027191;28;20395;-55
2022/05/22 04:46:07;;;;;;;11.50;3.70;;;;;;;;;;5027391;28;20387;-54
2022/05/22 04:48:33;;;;;;;8.48;2.70;;;;;;;;;;5027171;28;20387;-56
2022/05/22 04:50:59;;;;;;;10.68;3.20;;;;;;;;;;5028354;28;20410;-55
2022/05/22 04:53:26;;;;;;;13.38;3.70;;;;;;;;;;5030520;28;20785;-54
2022/05/22 04:55:52;;;;;;;8.13;2.60;;;;;;;;;;5029345;28;20691;-56
2022/05/22 04:58:19;;;;;;;13.17;2.93;;;;;;;;;;5027547;28;21315;-56
2022/05/22 05:00:46;;;;;;;12.23;3.17;;;;;;;;;;5027676;28;20372;-54
2022/05/22 05:03:13;;;;;;;10.65;3.50;;;;;;;;;;5027592;28;20383;-53
2022/05/22 05:05:39;;;;;;;12.52;3.20;;;;;;;;;;5026670;28;20395;-53
2022/05/22 05:08:05;;;;;;;10.50;3.10;;;;;;;;;;5027123;28;20481;-57
2022/05/22 05:10:31;;;;;;;10.57;3.47;;;;;;;;;;5027167;28;20541;-50
2022/05/22 05:12:57;;;;;;;8.05;2.55;;;;;;;;;;5026154;28;20437;-54
2022/05/22 05:15:24;;;;;;;10.35;3.00;;;;;;;;;;5026934;28;20407;-52
2022/05/22 05:17:50;;;;;;;11.07;3.13;;;;;;;;;;5025253;28;20426;-51
2022/05/22 05:20:18;;;;;;;11.80;3.38;;;;;;;;;;5023379;28;20411;-56
2022/05/22 05:22:44;;;;;;;11.55;3.13;;;;;;;;;;5025089;28;20709;-50
2022/05/22 05:25:11;;;;;;;12.00;3.40;;;;;;;;;;5024021;28;20787;-53
2022/05/22 05:27:37;;;;;;;8.50;2.75;;;;;;;;;;5027185;28;20465;-55
2022/05/22 05:30:04;;;;;;;6.60;2.42;;;;;;;;;;5026478;28;20405;-51
2022/05/22 05:32:30;;;;;;;7.20;2.70;;;;;;;;;;5027952;28;20418;-54
2022/05/22 05:34:59;;;;;;;12.18;3.20;;;;;;;;;;5031054;28;20465;-50
2022/05/22 05:37:25;;;;;;;12.77;2.97;;;;;;;;;;5032909;28;20814;-56
2022/05/22 05:39:52;;;;;;;11.70;3.40;;;;;;;;;;5031595;28;20448;-52
2022/05/22 05:42:18;;;;;;;6.75;2.20;;;;;;;;;;5031398;28;20391;-53
2022/05/22 05:44:44;;;;;;;11.20;3.20;;;;;;;;;;5030204;28;20799;-54
2022/05/22 05:47:11;;;;;;;9.48;2.88;;;;;;;;;;5030866;28;20434;-54
2022/05/22 05:49:38;;;;;;;10.00;3.05;;;;;;;;;;5032002;28;20406;-52
2022/05/22 05:52:04;;;;;;;11.25;2.90;;;;;;;;;;5031928;28;20530;-51
2022/05/22 05:54:30;;;;;;;11.52;2.90;;;;;;;;;;5030318;28;20487;-55
2022/05/22 05:56:58;;;;;;;9.13;2.95;;;;;;;;;;5032684;28;20673;-49
2022/05/22 05:59:23;;;;;;;10.45;3.25;;;;;;;;;;5033867;28;20385;-54
2022/05/22 06:01:49;;;;;;;11.57;3.10;;;;;;;;;;5033069;28;20397;-53
2022/05/22 06:04:15;;;;;;;14.73;3.50;;;;;;;;;;5031102;28;20876;-52
2022/05/22 06:06:41;;;;;;;10.43;3.00;;;;;;;;;;5033816;28;20683;-52
2022/05/22 06:09:07;;;;;;;7.35;2.92;;;;;;;;;;5033303;28;20450;-52
2022/05/22 06:11:33;;;;;;;8.60;2.95;;;;;;;;;;5032003;28;20401;-49
2022/05/22 06:13:59;;;;;;;9.48;3.38;;;;;;;;;;5051739;28;20410;-55
2022/05/22 06:16:26;;;;;;;10.00;3.15;;;;;;;;;;5050544;28;20385;-55
2022/05/22 06:18:52;;;;;;;9.20;2.70;;;;;;;;;;5032423;28;20381;-51
2022/05/22 06:21:19;;;;;;;10.07;2.90;;;;;;;;;;5030117;28;20769;-54
2022/05/22 06:23:45;;;;;;;7.57;2.72;;;;;;;;;;5028960;28;20722;-52
2022/05/22 06:26:13;;;;;;;9.35;3.20;;;;;;;;;;5029185;28;20393;-52
2022/05/22 06:28:41;;;;;;;9.23;3.10;;;;;;;;;;5027414;28;20390;-55
2022/05/22 06:31:08;;;;;;;11.20;3.15;;;;;;;;;;5010591;28;20738;-54
2022/05/22 06:33:34;;;;;;;8.98;2.90;;;;;;;;;;5046405;28;20397;-55
2022/05/22 06:36:00;;;;;;;10.82;3.28;;;;;;;;;;5060841;28;20794;-53
2022/05/22 06:41:11;;;;;;;9.52;3.33;;;;;;;;;;5066689;28;20394;-50
2022/05/22 06:43:38;;;;;;;9.13;3.10;;;;;;;;;;5065801;28;20486;-51
2022/05/22 06:46:04;;;;;;;11.15;3.47;;;;;;;;;;5047146;28;20660;-54
2022/05/22 06:48:31;;;;;;;8.05;3.58;;;;;;;;;;5047469;28;20500;-52
2022/05/22 06:50:57;;;;;;;10.27;3.50;;;;;;;;;;5043053;28;20615;-54
2022/05/22 06:53:24;;;;;;;6.70;2.53;;;;;;;;;;5046097;28;20521;-53
2022/05/22 06:55:50;;;;;;;8.32;3.45;;;;;;;;;;5047307;28;20443;-53
2022/05/22 06:58:16;;;;;;;9.50;3.50;;;;;;;;;;5046786;28;20422;-51
2022/05/22 07:00:42;;;;;;;11.67;3.33;;;;;;;;;;5048038;28;20395;-55
2022/05/22 07:03:08;;;;;;;11.30;3.63;;;;;;;;;;5046321;28;20453;-55
2022/05/22 07:05:34;;;;;;;9.43;3.58;;;;;;;;;;5047410;28;20559;-53
2022/05/22 07:08:00;;;;;;;10.55;3.50;;;;;;;;;;5066432;28;20384;-52
2022/05/22 07:13:11;;;;;;;9.50;3.65;;;;;;;;;;5064632;28;20764;-49
2022/05/22 07:15:37;;;;;;;11.23;3.70;;;;;;;;;;5065795;28;20410;-50
2022/05/22 07:18:04;;;;;;;8.52;3.08;;;;;;;;;;5047893;28;20635;-48
2022/05/22 07:20:30;;;;;;;6.25;2.63;;;;;;;;;;5046323;28;20376;-55
2022/05/22 07:22:56;;;;;;;6.43;2.95;;;;;;;;;;5062661;28;20395;-55
2022/05/22 07:25:22;;;;;;;6.05;2.80;;;;;;;;;;5044705;28;20664;-54
2022/05/22 07:27:48;;;;;;;9.27;2.63;;;;;;;;;;5045071;28;20387;-53
2022/05/22 07:30:14;;;;;;;8.43;2.70;;;;;;;;;;5063205;28;20378;-52
2022/05/22 07:32:39;;;;;;;9.55;3.00;;;;;;;;;;5046864;28;20392;-52
2022/05/22 07:35:06;;;;;;;10.47;3.17;;;;;;;;;;5046879;28;20407;-52
2022/05/22 07:37:32;;;;;;;9.93;3.50;;;;;;;;;;5064497;28;20760;-52
2022/05/22 07:39:58;;;;;;;9.10;3.05;;;;;;;;;;5045564;28;20380;-53
2022/05/22 07:42:24;;;;;;;9.93;2.90;;;;;;;;;;5045751;28;20396;-54
2022/05/22 07:44:50;;;;;;;10.93;3.30;;;;;;;;;;5047660;28;20395;-54
2022/05/22 07:47:16;;;;;;;9.27;2.67;;;;;;;;;;5049671;28;20380;-54
2022/05/22 07:52:27;;;;;;;5.28;1.70;;;;;;;;;;5068166;28;20939;-51
2022/05/22 07:54:53;;;;;;;4.77;1.30;;;;;;;;;;5049589;28;20423;-53
2022/05/22 07:57:19;;;;;;;4.83;1.60;;;;;;;;;;5043990;28;20404;-54
2022/05/22 07:59:45;;;;;;;4.10;1.50;;;;;;;;;;5048084;28;20397;-52
2022/05/22 08:02:12;;;;;;;6.80;1.70;;;;;;;;;;5033183;28;20377;-53
2022/05/22 08:04:40;;;;;;;5.25;1.85;;;;;;;;;;5031120;28;20425;-53
2022/05/22 08:07:05;;;;;;;5.93;1.83;;;;;;;;;;5022404;28;20824;-52
2022/05/22 08:09:31;;;;;;;5.85;2.10;;;;;;;;;;5022654;28;20835;-55
2022/05/22 08:11:57;;;;;;;7.32;2.35;;;;;;;;;;5023522;28;20646;-55
2022/05/22 08:14:23;;;;;;;6.63;1.93;;;;;;;;;;5042523;28;20409;-54
2022/05/22 08:16:51;;;;;;;8.20;2.00;;;;;;;;;;5026456;28;20746;-54
2022/05/22 08:19:18;;;;;;;6.43;1.80;;;;;;;;;;5027767;28;20860;-50
2022/05/22 08:21:44;;;;;;;6.03;1.70;;;;;;;;;;5029649;28;20425;-49
2022/05/22 08:24:10;;;;;;;7.53;2.25;;;;;;;;;;5028241;28;20452;-55
2022/05/22 08:26:37;;;;;;;7.97;2.20;;;;;;;;;;5046081;28;20498;-55
2022/05/22 08:29:09;;;;;;;4.30;1.65;;;;;;;;;;5029275;28;20393;-49
2022/05/22 08:31:35;;;;;;;8.07;2.10;;;;;;;;;;5029150;28;20428;-50
2022/05/22 08:34:02;;;;;;;7.32;2.00;;;;;;;;;;5027081;28;20508;-55
2022/05/22 08:36:28;;;;;;;7.53;1.98;;;;;;;;;;5047119;28;20761;-55
2022/05/22 08:38:54;;;;;;;7.00;1.90;;;;;;;;;;5047041;28;20393;-55
2022/05/22 08:41:21;;;;;;;7.30;2.17;;;;;;;;;;5031606;28;20864;-55
2022/05/22 08:43:56;;;;;;;5.50;1.73;;;;;;;;;;5030811;28;20401;-54
2022/05/22 08:46:35;;;;;;;6.72;2.10;;;;;;;;;;5047608;28;20388;-54
2022/05/22 08:49:04;;;;;;;6.65;2.15;;;;;;;;;;5028688;28;20385;-53
2022/05/22 08:51:33;;;;;;;5.72;2.00;;;;;;;;;;5044994;28;20454;-54
2022/05/22 08:54:11;;;;;;;6.57;2.22;;;;;;;;;;5026101;28;20409;-52
2022/05/22 08:59:24;;;;;;;5.22;1.48;;;;;;;;;;5042294;28;20800;-48
2022/05/22 09:02:10;;;;;;;2.80;1.10;;;;;;;;;;5023833;28;20727;-50
2022/05/22 09:04:48;;;;;;;5.55;1.60;;;;;;;;;;5023286;28;20377;-51
2022/05/22 09:07:22;;;;;;;4.43;1.40;;;;;;;;;;5028479;28;20454;-50
2022/05/22 09:09:57;;;;;;;4.28;1.65;;;;;;;;;;5032464;28;20377;-51
2022/05/22 09:12:23;;;;;;;5.72;1.60;;;;;;;;;;5031508;28;20550;-54
2022/05/22 09:15:04;;;;;;;4.90;1.70;;;;;;;;;;5046881;28;20768;-55
2022/05/22 09:17:40;;;;;;;6.60;1.75;;;;;;;;;;5028874;28;20412;-49
2022/05/22 09:20:09;;;;;;;6.97;2.00;;;;;;;;;;5029709;28;20400;-54
2022/05/22 09:22:47;;;;;;;4.60;1.48;;;;;;;;;;5052313;28;20674;-51
2022/05/22 09:25:20;;;;;;;5.32;1.90;;;;;;;;;;5037765;28;20385;-54
2022/05/22 09:27:55;;;;;;;7.10;1.80;;;;;;;;;;5038357;28;20488;-52
2022/05/22 09:30:35;;;;;;;5.88;1.90;;;;;;;;;;5038618;28;20471;-63
2022/05/22 09:33:09;;;;;;;7.03;1.95;;;;;;;;;;5036809;28;20401;-63
2022/05/22 09:35:43;;;;;;;5.10;1.42;;;;;;;;;;5037534;28;20805;-62
2022/05/22 09:38:15;;;;;;;5.00;1.48;;;;;;;;;;5052935;28;20486;-63
2022/05/22 09:40:46;;;;;;;5.45;1.58;;;;;;;;;;5034524;28;20389;-62
2022/05/22 09:43:31;;;;;;;5.90;1.90;;;;;;;;;;5035328;28;20760;-63
2022/05/22 09:46:02;;;;;;;5.43;1.55;;;;;;;;;;5033964;28;20646;-62
2022/05/22 09:48:52;;;;;;;4.60;1.42;;;;;;;;;;5032271;28;20378;-62
2022/05/22 09:51:33;;;;;;;5.03;1.53;;;;;;;;;;5049572;28;20388;-62
2022/05/22 09:54:09;;;;;;;5.57;1.67;;;;;;;;;;5031456;28;20435;-63
2022/05/22 09:56:35;;;;;;;6.13;1.40;;;;;;;;;;5028562;28;20426;-62
2022/05/22 09:59:11;;;;;;;2.78;1.20;;;;;;;;;;5031405;28;20409;-62
2022/05/22 10:01:43;;;;;;;6.20;1.33;;;;;;;;;;5024072;28;20736;-62
2022/05/22 10:04:28;;;;;;;5.40;1.65;;;;;;;;;;5020520;28;20666;-63
2022/05/22 10:07:01;;;;;;;4.97;1.40;;;;;;;;;;5021958;28;20631;-63
2022/05/22 10:09:46;;;;;;;6.38;1.30;;;;;;;;;;5024219;28;20403;-63
2022/05/22 10:12:24;;;;;;;5.00;1.40;;;;;;;;;;5026098;28;20395;-63
2022/05/22 10:14:50;;;;;;;2.72;1.10;;;;;;;;;;5025824;28;20472;-52
2022/05/22 10:17:30;;;;;;;4.00;1.33;;;;;;;;;;5023775;28;20382;-53
2022/05/22 10:20:15;;;;;;;6.20;1.27;;;;;;;;;;5027287;28;20394;-51
2022/05/22 10:22:41;;;;;;;3.08;0.90;;;;;;;;;;5024025;28;20393;-50
2022/05/22 10:25:10;;;;;;;5.35;1.20;;;;;;;;;;5024483;28;20383;-54
2022/05/22 10:27:54;;;;;;;3.45;1.15;;;;;;;;;;5024308;28;20829;-53
2022/05/22 10:30:28;;;;;;;3.17;1.00;;;;;;;;;;5025467;28;20387;-51
2022/05/22 10:33:13;;;;;;;3.53;1.20;;;;;;;;;;5025191;28;20422;-53
2022/05/22 10:36:01;;;;;;;4.15;1.52;;;;;;;;;;5027444;28;20411;-52
2022/05/22 10:38:30;;;;;;;4.40;1.42;;;;;;;;;;5023988;28;20478;-51
2022/05/22 10:43:47;;;;;;;2.95;1.15;;;;;;;;;;5022238;28;20392;-55
2022/05/22 10:46:13;;;;;;;4.15;1.35;;;;;;;;;;5023647;28;20771;-51
2022/05/22 10:48:49;;;;;;;3.60;1.05;;;;;;;;;;5020530;28;20398;-52
2022/05/22 10:51:21;;;;;;;4.88;1.30;;;;;;;;;;5021434;28;20449;-51
2022/05/22 10:54:00;;;;;;;3.08;1.17;;;;;;;;;;5024672;28;20472;-53
2022/05/22 10:56:28;;;;;;;4.50;1.40;;;;;;;;;;5025479;28;20691;-54
2022/05/22 10:58:57;;;;;;;3.25;1.20;;;;;;;;;;5022453;28;20375;-54
2022/05/22 11:01:25;;;;;;;3.40;1.13;;;;;;;;;;5023735;28;20405;-56
2022/05/22 11:04:01;;;;;;;4.80;1.00;;;;;;;;;;5022405;28;20516;-52
2022/05/22 11:06:27;;;;;;;3.33;1.30;;;;;;;;;;5021813;28;20386;-54
2022/05/22 11:08:54;;;;;;;2.83;1.10;;;;;;;;;;5022105;28;20683;-52
2022/05/22 11:11:23;;;;;;;2.20;0.90;;;;;;;;;;5019145;28;20584;-55
2022/05/22 11:13:50;;;;;;;2.25;0.90;;;;;;;;;;5019479;28;20474;-54
2022/05/22 11:16:29;;;;;;;3.03;1.00;;;;;;;;;;5019668;28;20814;-53
2022/05/22 11:19:10;;;;;;;3.00;1.13;;;;;;;;;;5021836;28;20695;-53
2022/05/22 11:21:54;;;;;;;5.70;1.50;;;;;;;;;;5020074;28;20609;-51
2022/05/22 11:24:36;;;;;;;4.15;1.38;;;;;;;;;;5023412;28;20439;-53
2022/05/22 11:27:02;;;;;;;2.70;1.15;;;;;;;;;;5021900;28;20460;-56
2022/05/22 11:29:46;;;;;;;3.92;1.25;;;;;;;;;;5022068;28;20851;-52
2022/05/22 11:32:18;;;;;;;2.97;1.13;;;;;;;;;;5024795;28;20448;-53
2022/05/22 11:34:47;;;;;;;2.40;0.80;;;;;;;;;;5023758;28;20510;-55
2022/05/22 11:37:40;;;;;;;2.42;0.90;;;;;;;;;;5024289;28;21019;-55
2022/05/22 11:40:14;;;;;;;3.35;1.13;;;;;;;;;;5025436;28;20375;-50
2022/05/22 11:42:41;;;;;;;2.40;0.88;;;;;;;;;;5024997;28;20386;-54
2022/05/22 11:45:41;;;;;;;1.80;0.80;;;;;;;;;;5026370;28;20809;-54
2022/05/22 11:48:07;;;;;;;3.30;1.00;;;;;;;;;;5030988;28;20385;-53
2022/05/22 11:53:58;;;;;;;2.70;1.17;;;;;;;;;;5031060;28;20401;-53
2022/05/22 11:56:36;;;;;;;3.78;1.05;;;;;;;;;;5047917;28;20417;-57
2022/05/22 11:59:08;;;;;;;2.77;1.40;;;;;;;;;;5035008;28;20785;-53
2022/05/22 12:01:34;;;;;;;3.73;1.30;;;;;;;;;;5051384;28;20389;-49
2022/05/22 12:04:05;;;;;;;3.40;1.30;;;;;;;;;;5033086;28;20374;-53
2022/05/22 12:06:44;;;;;;;2.43;1.00;;;;;;;;;;5032667;28;20791;-51
2022/05/22 12:09:19;;;;;;;2.30;1.17;;;;;;;;;;5032184;28;20468;-51
2022/05/22 12:11:52;;;;;;;2.58;1.20;;;;;;;;;;5031367;28;20405;-52
2022/05/22 12:14:25;;;;;;;3.45;1.50;;;;;;;;;;5049205;28;20412;-49
2022/05/22 12:16:57;;;;;;;2.55;1.05;;;;;;;;;;5032023;28;20477;-54
2022/05/22 12:19:45;;;;;;;3.08;1.35;;;;;;;;;;5031803;28;20393;-55
2022/05/22 12:22:11;;;;;;;4.90;1.65;;;;;;;;;;5029553;28;20408;-55
2022/05/22 12:25:03;;;;;;;2.22;1.30;;;;;;;;;;5047908;28;20674;-55
2022/05/22 12:30:38;;;;;;;4.63;1.85;;;;;;;;;;5047677;28;20356;-56
2022/05/22 12:33:06;;;;;;;5.13;1.63;;;;;;;;;;5031688;28;20401;-50
2022/05/22 12:35:32;;;;;;;4.57;1.80;;;;;;;;;;5049809;28;20428;-55
2022/05/22 12:38:01;;;;;;;2.97;1.55;;;;;;;;;;5050385;28;20374;-51
2022/05/22 12:40:30;;;;;;;4.30;1.40;;;;;;;;;;5050551;28;20394;-52
2022/05/22 12:42:57;;;;;;;4.03;1.30;;;;;;;;;;5051710;28;20468;-54
2022/05/22 12:45:24;;;;;;;3.63;1.50;;;;;;;;;;5033516;28;20840;-53
2022/05/22 12:47:52;;;;;;;2.65;1.15;;;;;;;;;;5035242;28;20401;-55
2022/05/22 12:50:33;;;;;;;3.78;1.38;;;;;;;;;;5050950;28;20389;-54
2022/05/22 12:52:59;;;;;;;3.58;1.42;;;;;;;;;;5049568;28;20378;-50
2022/05/22 12:55:28;;;;;;;3.97;1.20;;;;;;;;;;5031414;28;20939;-55
2022/05/22 12:57:56;;;;;;;4.18;1.27;;;;;;;;;;5047890;28;20380;-52
2022/05/22 13:00:30;;;;;;;4.20;1.10;;;;;;;;;;5030610;28;20435;-53
2022/05/22 13:03:06;;;;;;;3.08;1.30;;;;;;;;;;5046745;28;21013;-51
2022/05/22 13:05:39;;;;;;;2.65;1.00;;;;;;;;;;5030203;28;20443;-53
2022/05/22 13:08:14;;;;;;;3.78;1.40;;;;;;;;;;5031156;28;20395;-55
2022/05/22 13:11:03;;;;;;;4.20;1.30;;;;;;;;;;5050091;28;20393;-51
2022/05/22 13:13:36;;;;;;;3.08;1.40;;;;;;;;;;5031766;28;20381;-55
2022/05/22 13:16:07;;;;;;;3.17;1.13;;;;;;;;;;5032353;28;20389;-51
2022/05/22 13:18:33;;;;;;;3.20;1.20;;;;;;;;;;5051365;28;20648;-50
2022/05/22 13:21:00;;;;;;;3.30;1.10;;;;;;;;;;5034226;28;20374;-53
2022/05/22 13:23:28;;;;;;;4.15;1.00;;;;;;;;;;5034428;28;20431;-52
2022/05/22 13:26:06;;;;;;;3.45;1.20;;;;;;;;;;5051453;28;20405;-53
2022/05/22 13:28:35;;;;;;;3.75;1.50;;;;;;;;;;5033069;28;21099;-50
2022/05/22 13:31:08;;;;;;;3.30;1.10;;;;;;;;;;5033204;28;20397;-49
2022/05/22 13:33:40;;;;;;;3.05;1.40;;;;;;;;;;5031318;28;20443;-51
2022/05/22 13:36:21;;;;;;;3.95;1.25;;;;;;;;;;5031661;28;20394;-52
2022/05/22 13:38:46;;;;;;;2.67;1.07;;;;;;;;;;5032687;28;20428;-57
2022/05/22 13:41:37;;;;;;;3.50;1.37;;;;;;;;;;5049355;28;20417;-56
2022/05/22 13:47:24;;;;;;;2.05;0.90;;;;;;;;;;5048917;28;20349;-53
2022/05/22 13:49:53;;;;;;;4.82;1.00;;;;;;;;;;5032572;28;20389;-53
2022/05/22 13:52:37;;;;;;;1.98;1.02;;;;;;;;;;5047918;28;20393;-56
2022/05/22 13:55:08;;;;;;;3.17;1.00;;;;;;;;;;5029206;28;20601;-55
2022/05/22 13:57:36;;;;;;;2.33;0.90;;;;;;;;;;5030262;28;20391;-53
2022/05/22 14:00:05;;;;;;;2.28;1.00;;;;;;;;;;5029200;28;20383;-54
2022/05/22 14:02:44;;;;;;;1.77;0.83;;;;;;;;;;5028867;28;20703;-56
2022/05/22 14:05:10;;;;;;;1.88;0.80;;;;;;;;;;5026248;28;20407;-54
2022/05/22 14:07:47;;;;;;;1.40;0.80;;;;;;;;;;5030862;28;20383;-53
2022/05/22 14:10:13;;;;;;;2.70;1.10;;;;;;;;;;5029735;28;20407;-55
2022/05/22 14:12:41;;;;;;;3.10;1.60;;;;;;;;;;5029585;28;20383;-55
2022/05/22 14:15:11;;;;;;;3.85;1.52;;;;;;;;;;5028540;28;20438;-53
2022/05/22 14:17:38;;;;;;;2.93;1.00;;;;;;;;;;5031012;28;20387;-50
2022/05/22 14:20:06;;;;;;;3.42;1.60;;;;;;;;;;5031647;28;20387;-55
2022/05/22 14:22:46;;;;;;;2.47;1.30;;;;;;;;;;5030435;28;20751;-55
2022/05/22 14:25:12;;;;;;;3.00;0.93;;;;;;;;;;5028697;28;21018;-56
2022/05/22 14:27:46;;;;;;;1.77;0.85;;;;;;;;;;5029388;28;20470;-56
2022/05/22 14:30:20;;;;;;;2.03;0.80;;;;;;;;;;5033706;28;20391;-57
2022/05/22 14:32:56;;;;;;;2.03;0.95;;;;;;;;;;5032704;28;20383;-56
2022/05/22 14:35:25;;;;;;;2.10;0.88;;;;;;;;;;5033880;28;20430;-55
2022/05/22 14:37:51;;;;;;;1.73;0.80;;;;;;;;;;5031862;28;20811;-53
2022/05/22 14:40:19;;;;;;;1.60;1.00;;;;;;;;;;5033731;28;20810;-55
2022/05/22 14:42:47;;;;;;;2.70;0.98;;;;;;;;;;5031620;28;20387;-56
2022/05/22 14:45:14;;;;;;;2.78;1.13;;;;;;;;;;5031483;28;20391;-56
2022/05/22 14:47:41;;;;;;;2.57;0.80;;;;;;;;;;5028782;28;20396;-50
2022/05/22 14:50:07;;;;;;;1.48;0.75;;;;;;;;;;5029758;28;20444;-54
2022/05/22 14:52:37;;;;;;;1.77;0.80;;;;;;;;;;5031481;28;20387;-53
2022/05/22 14:55:09;;;;;;;1.70;0.87;;;;;;;;;;5034962;28;20417;-52
2022/05/22 14:57:40;;;;;;;1.52;1.00;;;;;;;;;;5034391;28;20473;-53
2022/05/22 15:00:06;;;;;;;2.85;1.00;;;;;;;;;;5034988;28;20425;-56
2022/05/22 15:02:40;;;;;;;1.98;1.00;;;;;;;;;;5051708;28;20381;-54
2022/05/22 15:05:15;;;;;;;0.90;0.70;;;;;;;;;;5047759;28;20408;-55
2022/05/22 15:08:10;;;;;;;1.88;0.80;;;;;;;;;;5035130;28;20823;-56
2022/05/22 15:10:42;;;;;;;2.10;0.75;;;;;;;;;;4981619;28;20450;-50
2022/05/22 15:13:22;;;;;;;2.25;0.90;;;;;;;;;;5034895;28;20417;-53
2022/05/22 15:15:48;;;;;;;1.88;1.00;;;;;;;;;;5031965;28;20498;-50
2022/05/22 15:18:20;;;;;;;1.60;0.73;;;;;;;;;;5033866;28;20476;-56